createdAt,value
2019-03-17T00:00:40.175Z,27.30
2019-03-17T00:03:08.868Z,19.52
2019-03-17T00:05:37.728Z,20.50
2019-03-17T00:08:06.339Z,23.67
2019-03-17T00:10:34.923Z,20.75
2019-03-17T00:13:03.533Z,22.05
2019-03-17T00:15:32.229Z,18.87
2019-03-17T00:18:00.991Z,18.32
2019-03-17T00:20:29.663Z,21.30
2019-03-17T00:22:58.631Z,18.15
2019-03-17T00:25:27.310Z,20.30
2019-03-17T00:27:55.915Z,22.07
2019-03-17T00:30:24.632Z,19.85
2019-03-17T00:32:53.411Z,16.57
2019-03-17T00:35:22.003Z,18.57
2019-03-17T00:37:50.708Z,16.48
2019-03-17T00:40:19.284Z,20.37
2019-03-17T00:42:47.888Z,16.93
2019-03-17T00:45:16.815Z,18.77
2019-03-17T00:47:45.432Z,18.52
2019-03-17T00:50:14.396Z,15.63
2019-03-17T00:52:43.578Z,20.62
2019-03-17T00:55:12.260Z,21.77
2019-03-17T00:57:40.960Z,13.10
2019-03-17T01:00:11.040Z,20.37
2019-03-17T01:02:39.683Z,16.27
2019-03-17T01:05:08.300Z,19.67
2019-03-17T01:07:37.245Z,21.48
2019-03-17T01:10:05.861Z,16.62
2019-03-17T01:12:34.522Z,14.00
2019-03-17T01:15:03.608Z,15.10
2019-03-17T01:17:32.227Z,17.23
2019-03-17T01:20:00.830Z,13.72
2019-03-17T01:22:29.599Z,16.87
2019-03-17T01:24:58.182Z,15.90
2019-03-17T01:27:26.765Z,11.22
2019-03-17T01:29:57.462Z,16.73
2019-03-17T01:32:25.716Z,13.83
2019-03-17T01:34:54.394Z,16.82
2019-03-17T01:37:25.231Z,15.38
2019-03-17T01:39:53.861Z,13.45
2019-03-17T01:42:22.848Z,15.03
2019-03-17T01:44:51.540Z,16.85
2019-03-17T01:47:20.420Z,12.88
2019-03-17T01:49:49.115Z,13.35
2019-03-17T01:52:17.756Z,13.48
2019-03-17T01:54:46.480Z,14.30
2019-03-17T01:57:15.144Z,16.85
2019-03-17T01:59:43.791Z,13.28
2019-03-17T02:02:12.774Z,13.50
2019-03-17T02:04:41.424Z,14.18
2019-03-17T02:07:10.428Z,10.82
2019-03-17T02:09:39.095Z,13.62
2019-03-17T02:12:07.736Z,17.27
2019-03-17T02:14:36.688Z,15.20
2019-03-17T02:17:05.741Z,14.98
2019-03-17T02:19:34.430Z,14.55
2019-03-17T02:22:03.160Z,12.05
2019-03-17T02:24:31.765Z,12.30
2019-03-17T02:27:00.536Z,13.25
2019-03-17T02:29:29.524Z,16.67
2019-03-17T02:31:58.150Z,9.08
2019-03-17T02:34:26.819Z,16.15
2019-03-17T02:36:55.631Z,10.85
2019-03-17T02:39:26.284Z,12.85
2019-03-17T02:41:54.855Z,9.95
2019-03-17T02:44:23.828Z,11.80
2019-03-17T02:46:52.501Z,15.25
2019-03-17T02:49:21.129Z,12.13
2019-03-17T02:51:50.220Z,12.07
2019-03-17T02:54:19.164Z,8.00
2019-03-17T02:56:47.773Z,15.05
2019-03-17T02:59:16.482Z,10.30
2019-03-17T03:01:45.195Z,15.10
2019-03-17T03:04:14.008Z,11.48
2019-03-17T03:06:42.723Z,11.08
2019-03-17T03:09:11.330Z,11.33
2019-03-17T03:11:40.106Z,10.63
2019-03-17T03:14:09.121Z,9.58
2019-03-17T03:16:37.722Z,11.33
2019-03-17T03:19:06.586Z,11.03
2019-03-17T03:21:35.236Z,12.93
2019-03-17T03:24:03.840Z,11.70
2019-03-17T03:26:32.696Z,10.20
2019-03-17T03:29:01.617Z,12.70
2019-03-17T03:31:30.332Z,14.50
2019-03-17T03:33:59.272Z,10.20
2019-03-17T03:36:28.031Z,10.13
2019-03-17T03:38:56.669Z,8.90
2019-03-17T03:41:25.335Z,12.30
2019-03-17T03:43:53.960Z,15.30
2019-03-17T03:46:22.561Z,11.28
2019-03-17T03:48:51.240Z,10.63
2019-03-17T03:51:20.230Z,10.88
2019-03-17T03:53:49.242Z,12.05
2019-03-17T03:56:18.147Z,10.30
2019-03-17T03:58:48.490Z,12.07
2019-03-17T04:01:17.157Z,13.05
2019-03-17T04:03:45.833Z,8.40
2019-03-17T04:06:25.596Z,11.60
2019-03-17T04:08:44.952Z,8.23
2019-03-17T04:11:13.696Z,9.70
2019-03-17T04:13:42.334Z,14.60
2019-03-17T04:16:11.061Z,12.30
2019-03-17T04:18:40.017Z,9.93
2019-03-17T04:21:10.964Z,10.93
2019-03-17T04:23:39.645Z,8.58
2019-03-17T04:26:08.323Z,10.23
2019-03-17T04:28:36.944Z,10.28
2019-03-17T04:31:05.575Z,9.70
2019-03-17T04:33:34.232Z,9.88
2019-03-17T04:36:03.184Z,10.43
2019-03-17T04:38:31.848Z,9.28
2019-03-17T04:41:00.516Z,8.95
2019-03-17T04:43:29.307Z,8.38
2019-03-17T04:45:58.096Z,7.20
2019-03-17T04:48:26.843Z,10.05
2019-03-17T04:50:55.806Z,8.58
2019-03-17T04:53:24.598Z,9.50
2019-03-17T04:55:53.460Z,6.97
2019-03-17T04:58:22.484Z,8.40
2019-03-17T05:00:51.471Z,9.98
2019-03-17T05:03:20.091Z,11.38
2019-03-17T05:05:49.156Z,8.50
2019-03-17T05:08:17.828Z,8.75
2019-03-17T05:10:46.469Z,9.05
2019-03-17T05:13:15.524Z,11.38
2019-03-17T05:15:44.615Z,7.70
2019-03-17T05:18:13.553Z,10.05
2019-03-17T05:20:42.423Z,7.30
2019-03-17T05:23:11.056Z,8.58
2019-03-17T05:25:40.106Z,8.28
2019-03-17T05:28:08.795Z,6.25
2019-03-17T05:30:37.392Z,9.58
2019-03-17T05:33:06.020Z,7.97
2019-03-17T05:35:34.984Z,6.97
2019-03-17T05:38:03.673Z,7.95
2019-03-17T05:40:32.288Z,6.33
2019-03-17T05:43:02.401Z,6.87
2019-03-17T05:45:31.140Z,6.85
2019-03-17T05:48:00.085Z,7.12
2019-03-17T05:50:28.712Z,7.30
2019-03-17T05:52:57.405Z,6.22
2019-03-17T05:55:26.144Z,8.50
2019-03-17T05:57:54.759Z,9.60
2019-03-17T06:00:23.939Z,8.23
2019-03-17T06:02:53.087Z,6.33
2019-03-17T06:05:21.777Z,9.60
2019-03-17T06:07:50.400Z,7.75
2019-03-17T06:10:18.998Z,8.38
2019-03-17T06:12:47.596Z,6.95
2019-03-17T06:15:16.266Z,7.50
2019-03-17T06:17:45.084Z,7.35
2019-03-17T06:20:13.771Z,7.62
2019-03-17T06:22:42.736Z,7.78
2019-03-17T06:25:13.649Z,6.72
2019-03-17T06:27:42.692Z,6.75
2019-03-17T06:30:11.663Z,8.60
2019-03-17T06:32:40.812Z,5.87
2019-03-17T06:35:09.568Z,8.50
2019-03-17T06:37:38.490Z,7.37
2019-03-17T06:40:07.721Z,8.53
2019-03-17T06:42:36.452Z,6.78
2019-03-17T06:45:05.988Z,4.30
2019-03-17T06:47:34.679Z,7.80
2019-03-17T06:50:03.382Z,4.97
2019-03-17T06:52:32.392Z,7.97
2019-03-17T06:55:01.393Z,5.67
2019-03-17T06:57:30.065Z,6.03
2019-03-17T06:59:59.037Z,6.55
2019-03-17T07:02:27.802Z,4.17
2019-03-17T07:04:56.688Z,7.35
2019-03-17T07:07:25.285Z,5.42
2019-03-17T07:09:53.904Z,5.78
2019-03-17T07:12:22.585Z,4.10
2019-03-17T07:14:51.568Z,5.87
2019-03-17T07:17:20.218Z,6.30
2019-03-17T07:19:48.812Z,4.67
2019-03-17T07:22:17.609Z,5.87
2019-03-17T07:24:46.325Z,6.25
2019-03-17T07:27:15.017Z,5.33
2019-03-17T07:29:43.793Z,6.12
2019-03-17T07:32:12.804Z,5.08
2019-03-17T07:34:41.623Z,5.45
2019-03-17T07:37:10.311Z,7.05
2019-03-17T07:39:39.429Z,6.22
2019-03-17T07:42:08.064Z,7.53
2019-03-17T07:44:36.708Z,6.08
2019-03-17T07:47:05.855Z,6.70
2019-03-17T07:49:34.534Z,4.25
2019-03-17T07:52:03.196Z,4.30
2019-03-17T07:54:34.910Z,7.37
2019-03-17T07:57:02.568Z,4.58
2019-03-17T07:59:31.284Z,6.12
2019-03-17T08:02:00.216Z,4.55
2019-03-17T08:04:28.836Z,4.17
2019-03-17T08:06:57.440Z,6.05
2019-03-17T08:09:26.533Z,6.05
2019-03-17T08:11:55.337Z,5.40
2019-03-17T08:14:24.277Z,6.80
2019-03-17T08:16:52.872Z,4.55
2019-03-17T08:19:21.463Z,4.37
2019-03-17T08:21:50.724Z,4.87
2019-03-17T08:24:19.764Z,4.42
2019-03-17T08:26:50.082Z,6.35
2019-03-17T08:29:19.288Z,6.28
2019-03-17T08:31:48.068Z,4.17
2019-03-17T08:34:16.660Z,4.92
2019-03-17T08:36:45.660Z,5.70
2019-03-17T08:39:14.504Z,3.62
2019-03-17T08:41:43.505Z,5.25
2019-03-17T08:44:12.109Z,4.78
2019-03-17T08:46:40.704Z,6.22
2019-03-17T08:49:09.436Z,5.62
2019-03-17T08:51:38.535Z,5.97
2019-03-17T08:54:07.649Z,6.08
2019-03-17T08:56:36.641Z,5.75
2019-03-17T08:59:05.532Z,4.45
2019-03-17T09:01:34.424Z,5.53
2019-03-17T09:04:03.372Z,4.97
2019-03-17T09:06:32.309Z,4.25
2019-03-17T09:09:00.922Z,5.03
2019-03-17T09:11:29.780Z,4.25
2019-03-17T09:13:58.880Z,4.20
2019-03-17T09:16:27.976Z,3.35
2019-03-17T09:18:56.596Z,3.20
2019-03-17T09:21:25.204Z,4.22
2019-03-17T09:23:54.118Z,3.55
2019-03-17T09:26:22.800Z,4.28
2019-03-17T09:28:51.846Z,3.40
2019-03-17T09:31:20.533Z,3.58
2019-03-17T09:33:49.353Z,5.92
2019-03-17T09:36:18.285Z,7.42
2019-03-17T09:38:47.785Z,6.92
2019-03-17T09:41:16.659Z,4.87
2019-03-17T09:43:45.455Z,5.70
2019-03-17T09:46:14.065Z,5.90
2019-03-17T09:48:44.941Z,5.22
2019-03-17T09:51:13.612Z,7.05
2019-03-17T09:53:42.228Z,4.42
2019-03-17T09:56:10.832Z,8.28
2019-03-17T09:58:39.544Z,5.62
2019-03-17T10:01:08.145Z,4.55
2019-03-17T10:03:36.787Z,4.40
2019-03-17T10:06:05.896Z,6.33
2019-03-17T10:08:34.519Z,4.85
2019-03-17T10:11:03.370Z,3.92
2019-03-17T10:13:31.964Z,6.83
2019-03-17T10:16:00.578Z,2.45
2019-03-17T10:18:29.435Z,3.12
2019-03-17T10:20:58.048Z,3.33
2019-03-17T10:23:26.671Z,4.87
2019-03-17T10:25:56.005Z,4.60
2019-03-17T10:28:24.620Z,5.45
2019-03-17T10:30:53.233Z,4.58
2019-03-17T10:33:22.175Z,4.15
2019-03-17T10:35:52.603Z,4.78
2019-03-17T10:38:21.364Z,4.42
2019-03-17T10:40:50.004Z,3.92
2019-03-17T10:43:18.604Z,3.70
2019-03-17T10:45:47.208Z,5.83
2019-03-17T10:48:15.816Z,5.78
2019-03-17T10:50:49.399Z,4.75
2019-03-17T10:53:14.796Z,4.90
2019-03-17T10:55:43.394Z,3.50
2019-03-17T10:58:12.148Z,3.85
2019-03-17T11:00:40.740Z,4.08
2019-03-17T11:03:11.877Z,2.83
2019-03-17T11:05:40.824Z,4.28
2019-03-17T11:08:11.551Z,5.33
2019-03-17T11:10:40.192Z,2.90
2019-03-17T11:13:08.813Z,4.30
2019-03-17T11:15:37.449Z,3.60
2019-03-17T11:18:06.115Z,4.37
2019-03-17T11:20:34.725Z,4.78
2019-03-17T11:23:03.382Z,2.70
2019-03-17T11:25:32.375Z,4.25
2019-03-17T11:28:03.827Z,2.02
2019-03-17T11:30:32.833Z,3.55
2019-03-17T11:33:01.428Z,5.78
2019-03-17T11:35:30.039Z,2.50
2019-03-17T11:37:58.640Z,1.98
2019-03-17T11:40:27.580Z,3.47
2019-03-17T11:42:56.360Z,3.77
2019-03-17T11:45:31.174Z,4.37
2019-03-17T11:48:00.879Z,4.62
2019-03-17T11:50:29.736Z,3.37
2019-03-17T11:52:58.356Z,2.60
2019-03-17T11:55:26.964Z,2.90
2019-03-17T11:57:55.665Z,2.90
2019-03-17T12:00:29.095Z,4.37
2019-03-17T12:02:59.597Z,6.95
2019-03-17T12:05:28.552Z,6.30
2019-03-17T12:07:57.541Z,6.97
2019-03-17T12:10:26.136Z,4.95
2019-03-17T12:12:54.739Z,11.68
2019-03-17T12:15:23.445Z,7.12
2019-03-17T12:17:52.071Z,3.62
2019-03-17T12:20:20.668Z,7.60
2019-03-17T12:22:49.582Z,4.05
2019-03-17T12:25:18.181Z,5.67
2019-03-17T12:27:46.779Z,6.90
2019-03-17T12:30:20.121Z,5.03
2019-03-17T12:32:49.165Z,4.97
2019-03-17T12:35:18.169Z,8.03
2019-03-17T12:37:47.132Z,1.92
2019-03-17T12:40:15.756Z,5.65
2019-03-17T12:42:44.985Z,6.47
2019-03-17T12:45:13.648Z,4.60
2019-03-17T12:47:42.587Z,5.05
2019-03-17T12:50:12.132Z,5.30
2019-03-17T12:52:40.774Z,4.30
2019-03-17T12:55:09.552Z,3.35
2019-03-17T12:57:38.175Z,6.62
2019-03-17T13:00:09.185Z,3.58
2019-03-17T13:02:37.972Z,4.35
2019-03-17T13:05:06.712Z,3.33
2019-03-17T13:07:35.640Z,3.33
2019-03-17T13:10:15.037Z,3.85
2019-03-17T13:12:34.976Z,5.62
2019-03-17T13:15:03.668Z,2.98
2019-03-17T13:17:32.344Z,4.45
2019-03-17T13:20:00.979Z,3.22
2019-03-17T13:22:30.112Z,5.28
2019-03-17T13:24:59.116Z,3.67
2019-03-17T13:27:28.080Z,2.70
2019-03-17T13:29:57.069Z,3.40
2019-03-17T13:32:25.713Z,3.70
2019-03-17T13:34:54.373Z,4.92
2019-03-17T13:37:23.020Z,2.58
2019-03-17T13:39:51.627Z,2.12
2019-03-17T13:42:20.331Z,4.10
2019-03-17T13:44:49.320Z,4.30
2019-03-17T13:47:17.988Z,2.15
2019-03-17T13:49:46.896Z,4.30
2019-03-17T13:52:15.679Z,4.62
2019-03-17T13:54:44.689Z,1.92
2019-03-17T13:57:13.369Z,2.27
2019-03-17T13:59:42.698Z,2.20
2019-03-17T14:02:11.652Z,2.92
2019-03-17T14:04:40.548Z,3.77
2019-03-17T14:07:10.282Z,4.08
2019-03-17T14:09:39.081Z,3.30
2019-03-17T14:12:08.241Z,2.25
2019-03-17T14:14:37.137Z,3.10
2019-03-17T14:17:06.124Z,2.52
2019-03-17T14:19:34.728Z,3.27
2019-03-17T14:22:03.428Z,2.35
2019-03-17T14:24:32.419Z,1.40
2019-03-17T14:27:01.098Z,2.85
2019-03-17T14:29:29.947Z,2.08
2019-03-17T14:31:58.612Z,1.92
2019-03-17T14:34:27.582Z,3.35
2019-03-17T14:36:56.540Z,1.40
2019-03-17T14:39:25.201Z,4.72
2019-03-17T14:41:54.199Z,1.87
2019-03-17T14:44:23.152Z,1.67
2019-03-17T14:46:51.782Z,1.47
2019-03-17T14:49:20.689Z,1.77
2019-03-17T14:51:49.303Z,2.92
2019-03-17T14:54:18.264Z,3.72
2019-03-17T14:56:46.936Z,2.95
2019-03-17T14:59:15.533Z,1.57
2019-03-17T15:01:44.128Z,1.12
2019-03-17T15:04:12.765Z,1.50
2019-03-17T15:06:41.419Z,1.67
2019-03-17T15:09:10.040Z,3.05
2019-03-17T15:11:38.703Z,1.87
2019-03-17T15:14:07.356Z,1.42
2019-03-17T15:16:37.013Z,1.52
2019-03-17T15:19:06.032Z,3.20
2019-03-17T15:21:34.671Z,2.42
2019-03-17T15:24:03.267Z,1.60
2019-03-17T15:26:32.808Z,2.67
2019-03-17T15:29:01.427Z,4.58
2019-03-17T15:31:30.812Z,2.30
2019-03-17T15:33:59.427Z,1.95
2019-03-17T15:36:28.030Z,2.27
2019-03-17T15:38:57.088Z,1.27
2019-03-17T15:41:25.996Z,2.27
2019-03-17T15:43:55.063Z,2.05
2019-03-17T15:46:23.661Z,3.08
2019-03-17T15:48:52.287Z,2.12
2019-03-17T15:51:21.208Z,1.40
2019-03-17T15:53:49.835Z,1.37
2019-03-17T15:56:18.810Z,1.60
2019-03-17T15:58:47.880Z,1.67
2019-03-17T16:01:16.492Z,2.10
2019-03-17T16:03:45.098Z,2.05
2019-03-17T16:06:13.887Z,3.37
2019-03-17T16:08:42.580Z,1.22
2019-03-17T16:11:11.535Z,2.17
2019-03-17T16:13:40.236Z,2.83
2019-03-17T16:16:08.900Z,2.33
2019-03-17T16:18:37.520Z,1.50
2019-03-17T16:21:08.903Z,1.12
2019-03-17T16:23:36.942Z,1.20
2019-03-17T16:26:06.144Z,2.52
2019-03-17T16:28:34.883Z,1.52
2019-03-17T16:31:03.569Z,1.65
2019-03-17T16:33:32.492Z,2.30
2019-03-17T16:36:01.121Z,1.77
2019-03-17T16:38:29.881Z,1.10
2019-03-17T16:40:58.580Z,1.50
2019-03-17T16:43:27.208Z,1.57
2019-03-17T16:45:55.989Z,1.45
2019-03-17T16:48:24.655Z,1.32
2019-03-17T16:50:53.304Z,1.37
2019-03-17T16:53:22.285Z,1.40
2019-03-17T16:55:51.186Z,1.20
2019-03-17T16:58:20.144Z,1.72
2019-03-17T17:00:49.140Z,1.90
2019-03-17T17:03:18.248Z,1.80
2019-03-17T17:05:47.243Z,2.33
2019-03-17T17:08:15.897Z,1.77
2019-03-17T17:10:49.938Z,1.12
2019-03-17T17:13:14.820Z,1.30
2019-03-17T17:15:43.729Z,1.52
2019-03-17T17:18:12.327Z,1.50
2019-03-17T17:20:41.039Z,1.00
2019-03-17T17:23:09.992Z,2.02
2019-03-17T17:25:38.985Z,2.37
2019-03-17T17:28:07.711Z,1.57
2019-03-17T17:30:36.500Z,1.90
2019-03-17T17:33:05.430Z,1.27
2019-03-17T17:35:34.447Z,1.25
2019-03-17T17:38:03.138Z,0.90
2019-03-17T17:40:32.058Z,1.52
2019-03-17T17:43:01.448Z,1.52
2019-03-17T17:45:30.108Z,1.32
2019-03-17T17:47:58.718Z,1.55
2019-03-17T17:50:27.341Z,1.55
2019-03-17T17:52:55.976Z,1.00
2019-03-17T17:55:24.960Z,2.40
2019-03-17T17:57:53.565Z,1.10
2019-03-17T18:00:22.924Z,1.47
2019-03-17T18:02:51.945Z,1.05
2019-03-17T18:05:20.560Z,1.05
2019-03-17T18:07:50.218Z,2.40
2019-03-17T18:10:18.847Z,1.05
2019-03-17T18:12:47.822Z,1.15
2019-03-17T18:15:18.441Z,1.12
2019-03-17T18:17:47.124Z,1.05
2019-03-17T18:20:15.851Z,1.07
2019-03-17T18:22:44.544Z,2.37
2019-03-17T18:25:13.876Z,1.85
2019-03-17T18:27:42.810Z,1.02
2019-03-17T18:30:13.172Z,1.37
2019-03-17T18:32:41.998Z,1.35
2019-03-17T18:35:10.790Z,1.17
2019-03-17T18:37:39.595Z,1.32
2019-03-17T18:40:10.223Z,0.98
2019-03-17T18:42:38.824Z,1.05
2019-03-17T18:45:08.368Z,1.87
2019-03-17T18:47:37.304Z,0.75
2019-03-17T18:50:06.394Z,1.05
2019-03-17T18:52:35.088Z,0.72
2019-03-17T18:55:03.742Z,0.60
2019-03-17T18:57:32.436Z,1.50
2019-03-17T19:00:04.257Z,1.57
2019-03-17T19:02:31.696Z,0.98
2019-03-17T19:05:00.381Z,1.20
2019-03-17T19:07:29.103Z,1.35
2019-03-17T19:09:58.043Z,1.20
2019-03-17T19:12:26.644Z,1.67
2019-03-17T19:14:55.476Z,1.75
2019-03-17T19:17:24.148Z,0.70
2019-03-17T19:19:53.036Z,1.27
2019-03-17T19:22:21.988Z,0.98
2019-03-17T19:24:51.039Z,1.00
2019-03-17T19:27:19.957Z,0.62
2019-03-17T19:29:48.868Z,0.82
2019-03-17T19:32:17.507Z,0.85
2019-03-17T19:34:46.101Z,1.25
2019-03-17T19:37:15.033Z,1.10
2019-03-17T19:39:43.788Z,0.80
2019-03-17T19:42:12.494Z,0.80
2019-03-17T19:44:41.178Z,0.90
2019-03-17T19:47:09.876Z,0.88
2019-03-17T19:49:38.509Z,0.90
2019-03-17T19:52:07.124Z,0.72
2019-03-17T19:54:36.426Z,0.60
2019-03-17T19:57:05.124Z,0.90
2019-03-17T19:59:33.741Z,1.05
2019-03-17T20:02:02.609Z,1.30
2019-03-17T20:04:35.210Z,0.68
2019-03-17T20:07:01.611Z,0.80
2019-03-17T20:09:30.231Z,0.80
2019-03-17T20:11:58.844Z,0.82
2019-03-17T20:14:27.520Z,0.85
2019-03-17T20:16:56.152Z,0.65
2019-03-17T20:19:25.085Z,0.70
2019-03-17T20:21:53.735Z,0.98
2019-03-17T20:24:22.516Z,1.40
2019-03-17T20:26:51.452Z,1.27
2019-03-17T20:29:20.088Z,0.50
2019-03-17T20:31:48.750Z,0.78
2019-03-17T20:34:17.500Z,1.00
2019-03-17T20:36:46.181Z,0.80
2019-03-17T20:39:15.290Z,0.80
2019-03-17T20:41:44.067Z,1.27
2019-03-17T20:44:12.691Z,0.72
2019-03-17T20:46:41.296Z,0.75
2019-03-17T20:49:10.211Z,0.60
2019-03-17T20:51:39.184Z,1.15
2019-03-17T20:54:07.798Z,0.72
2019-03-17T20:56:36.409Z,1.20
2019-03-17T20:59:05.007Z,0.60
2019-03-17T21:01:33.648Z,0.78
2019-03-17T21:04:02.249Z,1.22
2019-03-17T21:06:31.113Z,1.10
2019-03-17T21:09:00.104Z,0.60
2019-03-17T21:11:28.789Z,0.80
2019-03-17T21:13:57.820Z,1.10
2019-03-17T21:16:26.421Z,1.10
2019-03-17T21:18:55.287Z,1.17
2019-03-17T21:21:23.950Z,0.90
2019-03-17T21:23:52.941Z,0.60
2019-03-17T21:26:21.804Z,0.82
2019-03-17T21:28:50.496Z,0.60
2019-03-17T21:31:19.451Z,0.65
2019-03-17T21:33:48.081Z,1.60
2019-03-17T21:36:16.697Z,0.72
2019-03-17T21:38:45.488Z,0.93
2019-03-17T21:41:14.111Z,1.87
2019-03-17T21:43:42.784Z,0.95
2019-03-17T21:46:11.789Z,0.60
2019-03-17T21:48:40.740Z,0.80
2019-03-17T21:51:09.587Z,0.80
2019-03-17T21:53:38.288Z,0.57
2019-03-17T21:56:07.660Z,1.72
2019-03-17T21:58:36.440Z,0.60
2019-03-17T22:01:05.388Z,0.70
2019-03-17T22:03:34.285Z,0.50
2019-03-17T22:06:02.968Z,0.60
2019-03-17T22:08:32.262Z,0.70
2019-03-17T22:11:00.939Z,0.72
2019-03-17T22:13:29.608Z,0.62
2019-03-17T22:15:59.622Z,1.20
2019-03-17T22:18:29.161Z,0.72
2019-03-17T22:20:58.047Z,0.82
2019-03-17T22:23:26.765Z,1.17
2019-03-17T22:25:55.732Z,0.85
2019-03-17T22:28:24.340Z,0.78
2019-03-17T22:30:52.942Z,0.95
2019-03-17T22:33:21.742Z,1.00
2019-03-17T22:35:50.388Z,0.60
2019-03-17T22:38:19.090Z,0.80
2019-03-17T22:40:48.361Z,0.62
2019-03-17T22:43:16.960Z,0.82
2019-03-17T22:45:45.567Z,0.65
2019-03-17T22:48:14.520Z,0.60
2019-03-17T22:50:43.721Z,3.30
2019-03-17T22:53:12.326Z,0.50
2019-03-17T22:55:41.296Z,0.50
2019-03-17T22:58:09.936Z,0.55
2019-03-17T23:00:43.109Z,0.65
2019-03-17T23:03:12.761Z,1.05
2019-03-17T23:05:41.604Z,0.70
2019-03-17T23:08:10.292Z,0.57
2019-03-17T23:10:38.884Z,0.60
2019-03-17T23:13:07.868Z,1.05
2019-03-17T23:15:36.824Z,1.15
2019-03-17T23:18:05.419Z,0.50
2019-03-17T23:20:34.027Z,1.17
2019-03-17T23:23:02.615Z,0.53
2019-03-17T23:25:31.227Z,0.60
2019-03-17T23:27:59.831Z,0.40
2019-03-17T23:30:28.468Z,0.57
2019-03-17T23:32:57.210Z,1.05
2019-03-17T23:35:25.900Z,0.85
2019-03-17T23:37:54.528Z,0.40
2019-03-17T23:40:23.488Z,0.62
2019-03-17T23:42:52.476Z,1.32
2019-03-17T23:45:21.075Z,0.95
2019-03-17T23:47:49.967Z,0.40
2019-03-17T23:50:18.946Z,1.62
2019-03-17T23:52:47.645Z,0.68
2019-03-17T23:55:16.537Z,0.53
2019-03-17T23:57:45.199Z,0.72
